This is the latest recevied weather packets stored in our database for station/object KF4ERV-4. If no packets are shown the sender has not sent any weather packets the latest 10 day(s).
| Time | Temp. | Humidity | Pressure | Rain* | Wind** | Luminosity | Snow |
|---|---|---|---|---|---|---|---|
| 1777307971 | 22.78° C | 86% | 1015 hPa | 0 mm | - | - | - |
| 1777307791 | 22.78° C | 86% | 1014.9 hPa | 0 mm | - | - | - |
| 1777307674 | 22.78° C | 86% | 1014.9 hPa | 0 mm | - | - | - |
| 1777307500 | 22.78° C | 85% | 1014.9 hPa | 0 mm | - | - | - |
| 1777307377 | 22.78° C | 85% | 1014.9 hPa | 0 mm | - | - | - |
| 1777307229 | 21.11° C | 58% | 1015 hPa | 0 mm | - | - | - |
| 1777307210 | 22.78° C | 85% | 1015 hPa | 0 mm | - | - | - |
| 1777307081 | 22.78° C | 85% | 1015 hPa | 0 mm | - | - | - |
| 1777306920 | 22.78° C | 84% | 1014.8 hPa | 0 mm | - | - | - |
| 1777306772 | 22.78° C | 84% | 1014.8 hPa | 0 mm | - | - | - |
| 1777306632 | 22.22° C | 80% | 1014.1 hPa | 0 mm | - | - | - |
| 1777306628 | 21.11° C | 55% | 1015 hPa | 0 mm | - | - | - |
| 1777306476 | 22.22° C | 80% | 1014.1 hPa | 0 mm | - | - | - |
| 1777306341 | 21.67° C | 76% | 1014.3 hPa | 0 mm | - | - | - |
| 1777306178 | 21.67° C | 76% | 1014.3 hPa | 0 mm | - | - | - |
| 1777306050 | 21.67° C | 71% | 1015 hPa | 0 mm | - | - | - |
| 1777305870 | 21.67° C | 71% | 1015 hPa | 0 mm | - | - | - |
| 1777305761 | 21.11° C | 62% | 1015 hPa | 0 mm | - | - | - |
| 1777305573 | 21.11° C | 62% | 1015 hPa | 0 mm | - | - | - |
| 1777305470 | 21.11° C | 58% | 1015 hPa | 0 mm | - | - | - |
| 1777305276 | 21.11° C | 58% | 1015 hPa | 0 mm | - | - | - |
| 1777305180 | 21.11° C | 55% | 1015 hPa | 0 mm | - | - | - |
| 1777304979 | 21.11° C | 55% | 1015 hPa | 0 mm | - | - | - |
| 1777304889 | 20.56° C | 54% | 1015 hPa | 0 mm | - | - | - |
| 1777304778 | 20.56° C | 53% | 1015 hPa | 0 mm | - | - | - |
* Rain latest hour (hover to see other rain measurements)
** Current wind speed in m/s (hover to see current wind gust speed)